sensor_id;sensor_type;location;lat;lon;timestamp;pressure;altitude;pressure_sealevel;temperature;humidity
23953;BME280;12163;49.316;6.092;2023-03-04T00:01:13;100267.41;;;2.45;64.13
23953;BME280;12163;49.316;6.092;2023-03-04T00:03:41;100259.81;;;2.42;64.41
23953;BME280;12163;49.316;6.092;2023-03-04T00:06:08;100264.78;;;2.39;64.49
23953;BME280;12163;49.316;6.092;2023-03-04T00:08:35;100264.81;;;2.32;64.55
23953;BME280;12163;49.316;6.092;2023-03-04T00:11:01;100258.28;;;2.28;64.56
23953;BME280;12163;49.316;6.092;2023-03-04T00:13:28;100258.28;;;2.28;64.71
23953;BME280;12163;49.316;6.092;2023-03-04T00:15:54;100258.94;;;2.24;64.94
23953;BME280;12163;49.316;6.092;2023-03-04T00:18:21;100257.09;;;2.24;64.73
23953;BME280;12163;49.316;6.092;2023-03-04T00:20:48;100266.13;;;2.23;64.98
23953;BME280;12163;49.316;6.092;2023-03-04T00:23:17;100260.41;;;2.20;64.92
23953;BME280;12163;49.316;6.092;2023-03-04T00:25:44;100254.66;;;2.16;64.88
23953;BME280;12163;49.316;6.092;2023-03-04T00:28:10;100249.78;;;2.13;65.47
23953;BME280;12163;49.316;6.092;2023-03-04T00:30:37;100260.44;;;2.13;65.30
23953;BME280;12163;49.316;6.092;2023-03-04T00:33:04;100251.03;;;2.11;65.10
23953;BME280;12163;49.316;6.092;2023-03-04T00:35:30;100257.59;;;2.08;65.12
23953;BME280;12163;49.316;6.092;2023-03-04T00:37:57;100255.97;;;2.07;65.37
23953;BME280;12163;49.316;6.092;2023-03-04T00:40:23;100255.97;;;2.07;65.44
23953;BME280;12163;49.316;6.092;2023-03-04T00:42:50;100256.59;;;2.03;65.51
23953;BME280;12163;49.316;6.092;2023-03-04T00:45:16;100248.00;;;2.01;65.52
23953;BME280;12163;49.316;6.092;2023-03-04T00:47:43;100249.88;;;2.00;66.09
23953;BME280;12163;49.316;6.092;2023-03-04T00:50:10;100256.81;;;2.01;65.95
23953;BME280;12163;49.316;6.092;2023-03-04T00:52:37;100246.19;;;2.01;65.81
23953;BME280;12163;49.316;6.092;2023-03-04T00:55:04;100252.94;;;1.97;65.64
23953;BME280;12163;49.316;6.092;2023-03-04T00:57:31;100249.06;;;1.93;65.87
23953;BME280;12163;49.316;6.092;2023-03-04T00:59:57;100248.06;;;1.88;66.10
23953;BME280;12163;49.316;6.092;2023-03-04T01:02:24;100248.28;;;1.86;66.31
23953;BME280;12163;49.316;6.092;2023-03-04T01:04:50;100246.06;;;1.83;66.35
23953;BME280;12163;49.316;6.092;2023-03-04T01:07:17;100242.19;;;1.79;66.43
23953;BME280;12163;49.316;6.092;2023-03-04T01:09:44;100244.84;;;1.79;67.38
23953;BME280;12163;49.316;6.092;2023-03-04T01:12:10;100249.16;;;1.80;67.44
23953;BME280;12163;49.316;6.092;2023-03-04T01:14:37;100240.56;;;1.78;67.31
23953;BME280;12163;49.316;6.092;2023-03-04T01:17:04;100240.75;;;1.83;68.41
23953;BME280;12163;49.316;6.092;2023-03-04T01:19:31;100238.69;;;1.85;68.28
23953;BME280;12163;49.316;6.092;2023-03-04T01:21:57;100239.72;;;1.84;68.10
23953;BME280;12163;49.316;6.092;2023-03-04T01:24:24;100237.47;;;1.81;68.27
23953;BME280;12163;49.316;6.092;2023-03-04T01:26:50;100231.56;;;1.79;68.03
23953;BME280;12163;49.316;6.092;2023-03-04T01:29:17;100237.91;;;1.78;68.17
23953;BME280;12163;49.316;6.092;2023-03-04T01:31:43;100235.25;;;1.78;68.36
23953;BME280;12163;49.316;6.092;2023-03-04T01:34:10;100237.47;;;1.81;69.28
23953;BME280;12163;49.316;6.092;2023-03-04T01:36:37;100222.13;;;1.83;69.11
23953;BME280;12163;49.316;6.092;2023-03-04T01:39:03;100215.97;;;1.83;68.90
23953;BME280;12163;49.316;6.092;2023-03-04T01:41:31;100210.88;;;1.81;68.81
23953;BME280;12163;49.316;6.092;2023-03-04T01:43:58;100205.56;;;1.81;69.05
23953;BME280;12163;49.316;6.092;2023-03-04T01:46:28;100210.28;;;1.79;69.16
23953;BME280;12163;49.316;6.092;2023-03-04T01:48:55;100209.03;;;1.75;68.86
23953;BME280;12163;49.316;6.092;2023-03-04T01:51:22;100210.91;;;1.68;69.07
23953;BME280;12163;49.316;6.092;2023-03-04T01:53:50;100201.31;;;1.67;69.28
23953;BME280;12163;49.316;6.092;2023-03-04T01:56:23;100206.03;;;1.65;69.31
23953;BME280;12163;49.316;6.092;2023-03-04T01:59:09;100200.53;;;1.61;69.58
23953;BME280;12163;49.316;6.092;2023-03-04T02:01:37;100196.41;;;1.64;69.54
23953;BME280;12163;49.316;6.092;2023-03-04T02:04:04;100185.34;;;1.67;69.91
23953;BME280;12163;49.316;6.092;2023-03-04T02:06:31;100189.00;;;1.73;70.08
23953;BME280;12163;49.316;6.092;2023-03-04T02:08:58;100191.44;;;1.74;70.50
23953;BME280;12163;49.316;6.092;2023-03-04T02:11:25;100182.84;;;1.72;70.53
23953;BME280;12163;49.316;6.092;2023-03-04T02:13:52;100189.88;;;1.67;70.31
23953;BME280;12163;49.316;6.092;2023-03-04T02:16:18;100181.69;;;1.62;70.37
23953;BME280;12163;49.316;6.092;2023-03-04T02:18:45;100182.94;;;1.60;70.78
23953;BME280;12163;49.316;6.092;2023-03-04T02:21:31;100184.19;;;1.57;70.68
23953;BME280;12163;49.316;6.092;2023-03-04T02:26:37;100175.13;;;1.64;71.18
23953;BME280;12163;49.316;6.092;2023-03-04T02:29:08;100174.72;;;1.67;71.27
23953;BME280;12163;49.316;6.092;2023-03-04T02:31:38;100187.38;;;1.72;71.16
23953;BME280;12163;49.316;6.092;2023-03-04T02:34:14;100169.78;;;1.71;71.24
23953;BME280;12163;49.316;6.092;2023-03-04T02:36:42;100173.84;;;1.73;71.12
23953;BME280;12163;49.316;6.092;2023-03-04T02:39:12;100168.75;;;1.72;71.13
23953;BME280;12163;49.316;6.092;2023-03-04T02:41:40;100169.19;;;1.69;70.97
23953;BME280;12163;49.316;6.092;2023-03-04T02:44:31;100175.94;;;1.65;70.96
23953;BME280;12163;49.316;6.092;2023-03-04T02:47:00;100175.94;;;1.65;71.16
23953;BME280;12163;49.316;6.092;2023-03-04T02:49:29;100171.44;;;1.65;71.34
23953;BME280;12163;49.316;6.092;2023-03-04T02:52:05;100171.44;;;1.65;72.21
23953;BME280;12163;49.316;6.092;2023-03-04T02:54:32;100164.06;;;1.67;71.64
23953;BME280;12163;49.316;6.092;2023-03-04T02:57:03;100169.38;;;1.67;71.64
23953;BME280;12163;49.316;6.092;2023-03-04T02:59:29;100162.63;;;1.65;71.57
23953;BME280;12163;49.316;6.092;2023-03-04T03:01:56;100173.09;;;1.60;71.56
23953;BME280;12163;49.316;6.092;2023-03-04T03:04:25;100168.00;;;1.59;71.57
23953;BME280;12163;49.316;6.092;2023-03-04T03:06:52;100172.31;;;1.60;71.96
23953;BME280;12163;49.316;6.092;2023-03-04T03:09:19;100172.31;;;1.60;71.91
23953;BME280;12163;49.316;6.092;2023-03-04T03:11:46;100168.63;;;1.61;71.69
23953;BME280;12163;49.316;6.092;2023-03-04T03:14:12;100173.09;;;1.60;72.00
23953;BME280;12163;49.316;6.092;2023-03-04T03:16:39;100173.94;;;1.61;72.20
23953;BME280;12163;49.316;6.092;2023-03-04T03:19:06;100170.25;;;1.62;72.09
23953;BME280;12163;49.316;6.092;2023-03-04T03:21:32;100175.56;;;1.62;72.00
23953;BME280;12163;49.316;6.092;2023-03-04T03:23:59;100164.94;;;1.62;72.15
23953;BME280;12163;49.316;6.092;2023-03-04T03:26:25;100165.97;;;1.61;72.20
23953;BME280;12163;49.316;6.092;2023-03-04T03:28:52;100167.19;;;1.58;72.04
23953;BME280;12163;49.316;6.092;2023-03-04T03:31:19;100160.88;;;1.53;71.95
23953;BME280;12163;49.316;6.092;2023-03-04T03:33:45;100163.34;;;1.48;72.43
23953;BME280;12163;49.316;6.092;2023-03-04T03:36:12;100161.53;;;1.48;72.39
23953;BME280;12163;49.316;6.092;2023-03-04T03:38:39;100162.13;;;1.50;72.54
23953;BME280;12163;49.316;6.092;2023-03-04T03:41:05;100166.19;;;1.53;72.63
23953;BME280;12163;49.316;6.092;2023-03-04T03:43:32;100162.50;;;1.54;72.65
23953;BME280;12163;49.316;6.092;2023-03-04T03:45:59;100159.63;;;1.55;72.75
23953;BME280;12163;49.316;6.092;2023-03-04T03:48:25;100163.31;;;1.54;72.72
23953;BME280;12163;49.316;6.092;2023-03-04T03:50:52;100162.50;;;1.54;72.53
23953;BME280;12163;49.316;6.092;2023-03-04T03:53:18;100162.50;;;1.54;72.75
23953;BME280;12163;49.316;6.092;2023-03-04T03:55:45;100162.28;;;1.55;72.88
23953;BME280;12163;49.316;6.092;2023-03-04T03:58:12;100163.13;;;1.56;72.88
23953;BME280;12163;49.316;6.092;2023-03-04T04:00:38;100171.09;;;1.56;72.88
23953;BME280;12163;49.316;6.092;2023-03-04T04:03:05;100166.78;;;1.55;72.97
23953;BME280;12163;49.316;6.092;2023-03-04T04:05:32;100164.13;;;1.55;73.05
23953;BME280;12163;49.316;6.092;2023-03-04T04:07:58;100166.78;;;1.55;73.26
23953;BME280;12163;49.316;6.092;2023-03-04T04:10:25;100162.28;;;1.55;72.98
23953;BME280;12163;49.316;6.092;2023-03-04T04:12:51;100159.63;;;1.55;73.21
23953;BME280;12163;49.316;6.092;2023-03-04T04:15:18;100166.78;;;1.55;73.32
23953;BME280;12163;49.316;6.092;2023-03-04T04:17:45;100158.81;;;1.55;73.37
23953;BME280;12163;49.316;6.092;2023-03-04T04:20:11;100159.63;;;1.55;73.40
23953;BME280;12163;49.316;6.092;2023-03-04T04:22:38;100162.09;;;1.57;73.17
23953;BME280;12163;49.316;6.092;2023-03-04T04:25:05;100162.28;;;1.55;72.99
23953;BME280;12163;49.316;6.092;2023-03-04T04:27:34;100167.22;;;1.52;73.43
23953;BME280;12163;49.316;6.092;2023-03-04T04:30:00;100162.94;;;1.51;73.31
23953;BME280;12163;49.316;6.092;2023-03-04T04:32:27;100168.84;;;1.53;73.48
23953;BME280;12163;49.316;6.092;2023-03-04T04:34:54;100162.50;;;1.54;73.46
23953;BME280;12163;49.316;6.092;2023-03-04T04:37:20;100163.13;;;1.56;73.57
23953;BME280;12163;49.316;6.092;2023-03-04T04:39:47;100170.06;;;1.57;73.45
23953;BME280;12163;49.316;6.092;2023-03-04T04:42:13;100168.44;;;1.56;73.28
23953;BME280;12163;49.316;6.092;2023-03-04T04:44:40;100173.97;;;1.54;73.49
23953;BME280;12163;49.316;6.092;2023-03-04T04:47:08;100171.94;;;1.50;73.45
23953;BME280;12163;49.316;6.092;2023-03-04T04:49:35;100180.94;;;1.49;73.43
23953;BME280;12163;49.316;6.092;2023-03-04T04:52:01;100185.66;;;1.47;73.32
23953;BME280;12163;49.316;6.092;2023-03-04T04:54:28;100183.00;;;1.47;73.50
23953;BME280;12163;49.316;6.092;2023-03-04T04:56:55;100182.19;;;1.46;73.40
23953;BME280;12163;49.316;6.092;2023-03-04T04:59:22;100181.16;;;1.47;73.51
23953;BME280;12163;49.316;6.092;2023-03-04T05:01:48;100191.56;;;1.49;73.60
23953;BME280;12163;49.316;6.092;2023-03-04T05:04:15;100180.13;;;1.48;73.48
23953;BME280;12163;49.316;6.092;2023-03-04T05:06:42;100183.59;;;1.49;73.30
23953;BME280;12163;49.316;6.092;2023-03-04T05:09:08;100184.19;;;1.51;73.58
23953;BME280;12163;49.316;6.092;2023-03-04T05:11:35;100181.53;;;1.51;73.53
23953;BME280;12163;49.316;6.092;2023-03-04T05:14:01;100183.00;;;1.47;73.54
23953;BME280;12163;49.316;6.092;2023-03-04T05:16:28;100180.56;;;1.45;73.35
23953;BME280;12163;49.316;6.092;2023-03-04T05:18:55;100180.97;;;1.42;73.47
23953;BME280;12163;49.316;6.092;2023-03-04T05:21:21;100185.47;;;1.42;73.59
23953;BME280;12163;49.316;6.092;2023-03-04T05:23:48;100185.47;;;1.42;73.66
23953;BME280;12163;49.316;6.092;2023-03-04T05:26:16;100179.31;;;1.41;73.50
23953;BME280;12163;49.316;6.092;2023-03-04T05:28:43;100185.69;;;1.40;73.52
23953;BME280;12163;49.316;6.092;2023-03-04T05:31:10;100191.66;;;1.36;73.55
23953;BME280;12163;49.316;6.092;2023-03-04T05:33:37;100195.72;;;1.32;73.58
23953;BME280;12163;49.316;6.092;2023-03-04T05:36:05;100190.22;;;1.27;73.52
23953;BME280;12163;49.316;6.092;2023-03-04T05:38:32;100189.84;;;1.23;73.36
23953;BME280;12163;49.316;6.092;2023-03-04T05:41:02;100183.53;;;1.18;73.44
23953;BME280;12163;49.316;6.092;2023-03-04T05:43:30;100194.78;;;1.13;73.71
23953;BME280;12163;49.316;6.092;2023-03-04T05:45:57;100197.03;;;1.10;73.80
23953;BME280;12163;49.316;6.092;2023-03-04T05:48:23;100201.53;;;1.09;73.91
23953;BME280;12163;49.316;6.092;2023-03-04T05:50:58;100194.38;;;1.10;74.21
23953;BME280;12163;49.316;6.092;2023-03-04T05:53:27;100199.91;;;1.15;74.30
23953;BME280;12163;49.316;6.092;2023-03-04T05:55:54;100200.25;;;1.75;76.31
23953;BME280;12163;49.316;6.092;2023-03-04T05:58:21;100202.53;;;2.82;78.16
23953;BME280;12163;49.316;6.092;2023-03-04T06:00:48;100190.19;;;3.89;76.66
23953;BME280;12163;49.316;6.092;2023-03-04T06:03:16;100189.44;;;4.64;72.93
23953;BME280;12163;49.316;6.092;2023-03-04T06:05:43;100191.06;;;4.88;68.73
23953;BME280;12163;49.316;6.092;2023-03-04T06:08:11;100191.31;;;4.52;66.14
23953;BME280;12163;49.316;6.092;2023-03-04T06:10:39;100190.56;;;4.22;67.67
23953;BME280;12163;49.316;6.092;2023-03-04T06:13:07;100193.75;;;4.01;67.12
23953;BME280;12163;49.316;6.092;2023-03-04T06:15:33;100201.69;;;3.60;67.21
23953;BME280;12163;49.316;6.092;2023-03-04T06:18:00;100202.72;;;3.23;67.55
23953;BME280;12163;49.316;6.092;2023-03-04T06:20:27;100190.72;;;2.96;68.12
23953;BME280;12163;49.316;6.092;2023-03-04T06:22:54;100197.69;;;2.73;68.27
23953;BME280;12163;49.316;6.092;2023-03-04T06:25:21;100201.19;;;2.49;68.76
23953;BME280;12163;49.316;6.092;2023-03-04T06:27:48;100208.31;;;2.30;69.05
23953;BME280;12163;49.316;6.092;2023-03-04T06:30:17;100211.28;;;2.16;69.27
23953;BME280;12163;49.316;6.092;2023-03-04T06:32:44;100213.81;;;2.04;69.65
23953;BME280;12163;49.316;6.092;2023-03-04T06:35:13;100212.41;;;1.95;70.13
23953;BME280;12163;49.316;6.092;2023-03-04T06:37:40;100215.50;;;1.92;70.38
23953;BME280;12163;49.316;6.092;2023-03-04T06:40:08;100214.31;;;1.88;70.21
23953;BME280;12163;49.316;6.092;2023-03-04T06:42:36;100217.59;;;1.84;70.30
23953;BME280;12163;49.316;6.092;2023-03-04T06:45:03;100221.72;;;1.80;70.55
23953;BME280;12163;49.316;6.092;2023-03-04T06:47:30;100223.56;;;1.79;70.81
23953;BME280;12163;49.316;6.092;2023-03-04T06:49:56;100227.88;;;1.80;71.14
23953;BME280;12163;49.316;6.092;2023-03-04T06:52:23;100243.41;;;1.83;70.87
23953;BME280;12163;49.316;6.092;2023-03-04T06:54:50;100236.22;;;1.84;71.01
23953;BME280;12163;49.316;6.092;2023-03-04T06:57:17;100236.03;;;1.85;71.24
23953;BME280;12163;49.316;6.092;2023-03-04T06:59:43;100234.75;;;1.88;71.07
23953;BME280;12163;49.316;6.092;2023-03-04T07:02:11;100242.13;;;1.92;70.84
23953;BME280;12163;49.316;6.092;2023-03-04T07:04:39;100235.56;;;1.95;71.03
23953;BME280;12163;49.316;6.092;2023-03-04T07:07:06;100235.13;;;1.98;71.11
23953;BME280;12163;49.316;6.092;2023-03-04T07:09:33;100239.41;;;2.05;71.06
23953;BME280;12163;49.316;6.092;2023-03-04T07:11:59;100235.06;;;2.11;70.84
23953;BME280;12163;49.316;6.092;2023-03-04T07:14:26;100238.69;;;2.16;70.71
23953;BME280;12163;49.316;6.092;2023-03-04T07:16:53;100245.22;;;2.20;71.00
23953;BME280;12163;49.316;6.092;2023-03-04T07:19:20;100242.75;;;2.25;70.79
23953;BME280;12163;49.316;6.092;2023-03-04T07:21:47;100250.66;;;2.32;70.65
23953;BME280;12163;49.316;6.092;2023-03-04T07:24:13;100254.94;;;2.39;70.61
23953;BME280;12163;49.316;6.092;2023-03-04T07:26:40;100253.47;;;2.43;70.46
23953;BME280;12163;49.316;6.092;2023-03-04T07:29:07;100258.97;;;2.48;70.36
23953;BME280;12163;49.316;6.092;2023-03-04T07:31:34;100265.50;;;2.52;70.15
23953;BME280;12163;49.316;6.092;2023-03-04T07:34:05;100265.91;;;2.56;70.13
23953;BME280;12163;49.316;6.092;2023-03-04T07:36:34;100271.38;;;2.61;69.94
23953;BME280;12163;49.316;6.092;2023-03-04T07:39:01;100267.84;;;2.67;69.91
23953;BME280;12163;49.316;6.092;2023-03-04T07:41:29;100266.19;;;2.72;69.77
23953;BME280;12163;49.316;6.092;2023-03-04T07:43:57;100268.56;;;2.80;69.75
23953;BME280;12163;49.316;6.092;2023-03-04T07:46:24;100267.69;;;2.86;69.52
23953;BME280;12163;49.316;6.092;2023-03-04T07:48:51;100276.47;;;2.93;69.13
23953;BME280;12163;49.316;6.092;2023-03-04T07:51:19;100272.47;;;3.02;68.94
23953;BME280;12163;49.316;6.092;2023-03-04T07:53:48;100269.50;;;3.10;68.98
23953;BME280;12163;49.316;6.092;2023-03-04T07:56:22;100270.28;;;3.17;68.53
23953;BME280;12163;49.316;6.092;2023-03-04T07:58:49;100262.81;;;3.26;68.25
23953;BME280;12163;49.316;6.092;2023-03-04T08:01:29;100275.06;;;3.33;68.38
23953;BME280;12163;49.316;6.092;2023-03-04T08:03:56;100266.31;;;3.44;68.22
23953;BME280;12163;49.316;6.092;2023-03-04T08:06:24;100268.22;;;3.55;67.84
23953;BME280;12163;49.316;6.092;2023-03-04T08:09:01;100259.94;;;3.63;67.17
23953;BME280;12163;49.316;6.092;2023-03-04T08:11:29;100270.88;;;3.73;67.16
23953;BME280;12163;49.316;6.092;2023-03-04T08:13:56;100268.75;;;3.81;66.57
23953;BME280;12163;49.316;6.092;2023-03-04T08:16:24;100262.06;;;3.90;66.36
23953;BME280;12163;49.316;6.092;2023-03-04T08:18:55;100259.06;;;3.98;64.94
23953;BME280;12163;49.316;6.092;2023-03-04T08:21:23;100265.97;;;4.06;64.80
23953;BME280;12163;49.316;6.092;2023-03-04T08:23:51;100259.84;;;4.17;65.00
23953;BME280;12163;49.316;6.092;2023-03-04T08:26:32;100260.59;;;4.24;64.54
23953;BME280;12163;49.316;6.092;2023-03-04T08:29:01;100265.38;;;4.33;63.37
23953;BME280;12163;49.316;6.092;2023-03-04T08:31:27;100265.63;;;4.43;63.56
23953;BME280;12163;49.316;6.092;2023-03-04T08:33:54;100267.50;;;4.54;63.20
23953;BME280;12163;49.316;6.092;2023-03-04T08:36:21;100264.75;;;4.61;62.82
23953;BME280;12163;49.316;6.092;2023-03-04T08:38:48;100276.88;;;4.75;63.30
23953;BME280;12163;49.316;6.092;2023-03-04T08:41:15;100264.31;;;4.87;61.27
23953;BME280;12163;49.316;6.092;2023-03-04T08:43:42;100263.06;;;4.89;61.40
23953;BME280;12163;49.316;6.092;2023-03-04T08:46:09;100265.03;;;4.93;61.03
23953;BME280;12163;49.316;6.092;2023-03-04T08:48:36;100266.09;;;4.93;60.56
23953;BME280;12163;49.316;6.092;2023-03-04T08:51:08;100270.97;;;4.95;60.97
23953;BME280;12163;49.316;6.092;2023-03-04T08:53:36;100269.00;;;5.02;60.85
23953;BME280;12163;49.316;6.092;2023-03-04T08:56:04;100273.56;;;5.13;60.22
23953;BME280;12163;49.316;6.092;2023-03-04T08:58:30;100280.16;;;5.22;59.53
23953;BME280;12163;49.316;6.092;2023-03-04T09:00:58;100270.41;;;5.16;59.20
23953;BME280;12163;49.316;6.092;2023-03-04T09:03:25;100269.69;;;5.09;59.52
23953;BME280;12163;49.316;6.092;2023-03-04T09:05:51;100284.34;;;5.07;59.71
23953;BME280;12163;49.316;6.092;2023-03-04T09:08:18;100275.97;;;5.03;59.93
23953;BME280;12163;49.316;6.092;2023-03-04T09:10:45;100281.44;;;4.97;59.86
23953;BME280;12163;49.316;6.092;2023-03-04T09:13:12;100289.34;;;4.92;60.08
23953;BME280;12163;49.316;6.092;2023-03-04T09:15:47;100284.44;;;4.89;60.69
23953;BME280;12163;49.316;6.092;2023-03-04T09:18:14;100283.66;;;4.89;60.35
23953;BME280;12163;49.316;6.092;2023-03-04T09:20:41;100282.81;;;4.88;60.52
23953;BME280;12163;49.316;6.092;2023-03-04T09:23:07;100283.28;;;4.85;60.07
23953;BME280;12163;49.316;6.092;2023-03-04T09:25:36;100281.66;;;4.84;60.42
23953;BME280;12163;49.316;6.092;2023-03-04T09:28:04;100277.25;;;4.90;60.97
23953;BME280;12163;49.316;6.092;2023-03-04T09:30:32;100274.81;;;4.99;60.80
23953;BME280;12163;49.316;6.092;2023-03-04T09:32:59;100286.34;;;5.11;60.61
23953;BME280;12163;49.316;6.092;2023-03-04T09:35:27;100281.78;;;5.23;59.77
23953;BME280;12163;49.316;6.092;2023-03-04T09:37:57;100284.81;;;5.38;60.40
23953;BME280;12163;49.316;6.092;2023-03-04T09:40:27;100284.00;;;5.49;59.78
23953;BME280;12163;49.316;6.092;2023-03-04T09:43:01;100280.03;;;5.63;59.31
23953;BME280;12163;49.316;6.092;2023-03-04T09:45:36;100288.63;;;5.77;59.47
23953;BME280;12163;49.316;6.092;2023-03-04T09:48:06;100288.03;;;5.86;58.20
23953;BME280;12163;49.316;6.092;2023-03-04T09:50:40;100278.13;;;5.87;58.02
23953;BME280;12163;49.316;6.092;2023-03-04T09:53:17;100285.09;;;5.88;58.44
23953;BME280;12163;49.316;6.092;2023-03-04T09:55:48;100281.72;;;5.92;57.44
23953;BME280;12163;49.316;6.092;2023-03-04T10:03:43;100284.97;;;5.94;57.64
23953;BME280;12163;49.316;6.092;2023-03-04T10:06:19;100279.50;;;6.01;57.61
23953;BME280;12163;49.316;6.092;2023-03-04T10:09:00;100286.13;;;5.98;57.50
23953;BME280;12163;49.316;6.092;2023-03-04T10:11:36;100286.41;;;5.85;57.68
23953;BME280;12163;49.316;6.092;2023-03-04T10:14:31;100292.34;;;5.76;57.80
23953;BME280;12163;49.316;6.092;2023-03-04T10:19:37;100292.94;;;5.66;58.82
23953;BME280;12163;49.316;6.092;2023-03-04T10:22:24;100288.16;;;5.68;58.84
23953;BME280;12163;49.316;6.092;2023-03-04T10:24:57;100285.00;;;5.71;58.62
23953;BME280;12163;49.316;6.092;2023-03-04T10:27:24;100276.88;;;5.66;58.93
23953;BME280;12163;49.316;6.092;2023-03-04T10:29:51;100278.59;;;5.72;58.04
23953;BME280;12163;49.316;6.092;2023-03-04T10:32:19;100281.75;;;5.69;58.03
23953;BME280;12163;49.316;6.092;2023-03-04T10:34:46;100278.50;;;5.67;58.23
23953;BME280;12163;49.316;6.092;2023-03-04T10:37:13;100281.19;;;5.67;58.24
23953;BME280;12163;49.316;6.092;2023-03-04T10:39:42;100274.28;;;5.71;58.44
23953;BME280;12163;49.316;6.092;2023-03-04T10:45:02;100274.88;;;5.85;58.05
23953;BME280;12163;49.316;6.092;2023-03-04T10:47:31;100277.69;;;5.90;58.39
23953;BME280;12163;49.316;6.092;2023-03-04T10:50:04;100278.00;;;5.93;57.74
23953;BME280;12163;49.316;6.092;2023-03-04T10:52:40;100269.25;;;5.98;57.65
23953;BME280;12163;49.316;6.092;2023-03-04T10:55:27;100275.63;;;6.08;57.74
23953;BME280;12163;49.316;6.092;2023-03-04T10:57:55;100277.81;;;6.11;58.06
23953;BME280;12163;49.316;6.092;2023-03-04T11:00:24;100271.28;;;6.19;57.29
23953;BME280;12163;49.316;6.092;2023-03-04T11:02:52;100267.41;;;6.26;57.47
23953;BME280;12163;49.316;6.092;2023-03-04T11:05:19;100264.91;;;6.36;57.47
23953;BME280;12163;49.316;6.092;2023-03-04T11:07:51;100265.56;;;6.43;57.35
23953;BME280;12163;49.316;6.092;2023-03-04T11:10:23;100261.44;;;6.52;57.30
23953;BME280;12163;49.316;6.092;2023-03-04T11:12:58;100249.25;;;6.61;56.99
23953;BME280;12163;49.316;6.092;2023-03-04T11:15:27;100245.78;;;6.61;56.17
23953;BME280;12163;49.316;6.092;2023-03-04T11:18:08;100248.22;;;6.62;56.53
23953;BME280;12163;49.316;6.092;2023-03-04T11:20:38;100244.56;;;6.68;56.51
23953;BME280;12163;49.316;6.092;2023-03-04T11:23:15;100236.59;;;6.73;56.36
23953;BME280;12163;49.316;6.092;2023-03-04T11:25:57;100244.50;;;6.79;55.89
23953;BME280;12163;49.316;6.092;2023-03-04T11:28:41;100242.78;;;6.90;56.05
23953;BME280;12163;49.316;6.092;2023-03-04T11:31:16;100237.56;;;7.00;55.83
23953;BME280;12163;49.316;6.092;2023-03-04T11:33:56;100241.94;;;7.06;55.18
23953;BME280;12163;49.316;6.092;2023-03-04T11:38:58;100234.31;;;6.98;54.78
23953;BME280;12163;49.316;6.092;2023-03-04T11:41:38;100236.78;;;6.99;54.80
23953;BME280;12163;49.316;6.092;2023-03-04T11:44:07;100229.09;;;7.08;55.23
23953;BME280;12163;49.316;6.092;2023-03-04T11:47:21;100239.16;;;7.17;54.82
23953;BME280;12163;49.316;6.092;2023-03-04T11:50:22;100227.53;;;7.28;54.91
23953;BME280;12163;49.316;6.092;2023-03-04T11:55:33;100216.69;;;7.40;54.57
23953;BME280;12163;49.316;6.092;2023-03-04T12:00:48;100218.13;;;7.47;53.56
23953;BME280;12163;49.316;6.092;2023-03-04T12:06:00;100222.91;;;7.24;53.38
23953;BME280;12163;49.316;6.092;2023-03-04T12:14:12;100208.56;;;7.35;53.78
23953;BME280;12163;49.316;6.092;2023-03-04T12:17:28;100195.31;;;7.50;53.68
23953;BME280;12163;49.316;6.092;2023-03-04T12:25:17;100178.84;;;7.41;53.07
23953;BME280;12163;49.316;6.092;2023-03-04T12:30:39;100185.59;;;7.44;52.88
23953;BME280;12163;49.316;6.092;2023-03-04T12:35:52;100177.19;;;7.19;53.18
23953;BME280;12163;49.316;6.092;2023-03-04T12:38:58;100174.75;;;7.17;53.56
23953;BME280;12163;49.316;6.092;2023-03-04T12:42:02;100165.19;;;7.21;53.69
23953;BME280;12163;49.316;6.092;2023-03-04T12:47:31;100159.81;;;7.43;53.62
23953;BME280;12163;49.316;6.092;2023-03-04T12:50:04;100153.28;;;7.60;53.33
23953;BME280;12163;49.316;6.092;2023-03-04T12:52:43;100146.09;;;7.66;52.97
23953;BME280;12163;49.316;6.092;2023-03-04T12:55:16;100145.09;;;7.72;52.66
23953;BME280;12163;49.316;6.092;2023-03-04T12:57:44;100142.47;;;7.77;52.85
23953;BME280;12163;49.316;6.092;2023-03-04T13:09:28;100148.25;;;7.64;52.69
23953;BME280;12163;49.316;6.092;2023-03-04T13:12:19;100145.03;;;7.67;52.52
23953;BME280;12163;49.316;6.092;2023-03-04T13:20:18;100140.84;;;7.76;52.36
23953;BME280;12163;49.316;6.092;2023-03-04T13:23:01;100128.97;;;7.72;52.26
23953;BME280;12163;49.316;6.092;2023-03-04T13:25:37;100124.44;;;7.72;52.29
23953;BME280;12163;49.316;6.092;2023-03-04T13:28:11;100134.47;;;7.82;52.56
23953;BME280;12163;49.316;6.092;2023-03-04T13:30:42;100129.69;;;7.89;52.12
23953;BME280;12163;49.316;6.092;2023-03-04T13:36:01;100122.38;;;7.84;51.92
23953;BME280;12163;49.316;6.092;2023-03-04T13:43:55;100121.16;;;7.97;51.39
23953;BME280;12163;49.316;6.092;2023-03-04T14:06:52;100100.84;;;8.06;51.92
23953;BME280;12163;49.316;6.092;2023-03-04T14:09:23;100100.53;;;8.02;51.05
23953;BME280;12163;49.316;6.092;2023-03-04T14:11:51;100087.94;;;8.03;51.85
23953;BME280;12163;49.316;6.092;2023-03-04T14:14:22;100085.53;;;8.06;51.86
23953;BME280;12163;49.316;6.092;2023-03-04T14:16:59;100095.50;;;8.11;51.86
23953;BME280;12163;49.316;6.092;2023-03-04T14:19:29;100095.50;;;8.11;51.49
23953;BME280;12163;49.316;6.092;2023-03-04T14:22:00;100094.19;;;8.13;51.78
23953;BME280;12163;49.316;6.092;2023-03-04T14:24:27;100089.63;;;8.14;51.44
23953;BME280;12163;49.316;6.092;2023-03-04T14:27:12;100087.44;;;8.11;51.48
23953;BME280;12163;49.316;6.092;2023-03-04T14:29:39;100087.69;;;8.09;51.89
23953;BME280;12163;49.316;6.092;2023-03-04T14:32:06;100082.56;;;8.03;51.44
23953;BME280;12163;49.316;6.092;2023-03-04T14:34:36;100087.31;;;7.96;51.91
23953;BME280;12163;49.316;6.092;2023-03-04T14:37:19;100086.41;;;7.85;52.17
23953;BME280;12163;49.316;6.092;2023-03-04T14:39:49;100075.88;;;7.79;52.04